createdAt,value
2022-09-16T00:00:56.213Z,1.70
2022-09-16T00:05:57.955Z,1.50
2022-09-16T00:11:00.544Z,1.90
2022-09-16T00:16:02.406Z,1.50
2022-09-16T00:21:09.746Z,1.93
2022-09-16T00:26:11.508Z,1.70
2022-09-16T00:31:13.183Z,2.00
2022-09-16T00:36:16.610Z,1.77
2022-09-16T00:41:20.659Z,1.70
2022-09-16T00:46:33.486Z,1.57
2022-09-16T00:51:35.273Z,2.00
2022-09-16T00:56:38.745Z,1.80
2022-09-16T01:01:42.470Z,2.10
2022-09-16T01:06:44.213Z,1.80
2022-09-16T01:11:45.839Z,1.80
2022-09-16T01:16:58.210Z,2.00
2022-09-16T01:22:21.188Z,2.07
2022-09-16T01:27:40.935Z,2.60
2022-09-16T01:33:04.967Z,2.30
2022-09-16T01:38:36.071Z,1.90
2022-09-16T01:43:43.164Z,2.10
2022-09-16T01:48:59.439Z,2.53
2022-09-16T01:54:31.743Z,2.03
2022-09-16T01:59:43.772Z,1.87
2022-09-16T02:04:55.821Z,2.10
2022-09-16T02:10:00.138Z,1.73
2022-09-16T02:15:04.947Z,1.90
2022-09-16T02:20:11.749Z,1.97
2022-09-16T02:25:14.085Z,1.80
2022-09-16T02:30:17.540Z,2.20
2022-09-16T02:35:19.661Z,2.10
2022-09-16T02:40:27.308Z,2.10
2022-09-16T02:46:09.972Z,1.80
2022-09-16T02:51:18.117Z,2.27
2022-09-16T02:56:48.907Z,2.27
2022-09-16T03:01:50.965Z,1.70
2022-09-16T03:06:52.634Z,1.93
2022-09-16T03:12:18.751Z,1.73
2022-09-16T03:17:39.021Z,1.87
2022-09-16T03:22:43.582Z,2.00
2022-09-16T03:28:02.191Z,2.00
2022-09-16T03:33:06.812Z,2.13
2022-09-16T03:38:08.465Z,1.87
2022-09-16T03:43:11.907Z,1.60
2022-09-16T03:48:13.545Z,1.93
2022-09-16T03:53:15.173Z,1.80
2022-09-16T03:58:16.810Z,2.00
2022-09-16T04:03:18.437Z,2.00
2022-09-16T04:08:20.208Z,1.93
2022-09-16T04:13:21.872Z,1.97
2022-09-16T04:18:23.597Z,2.20
2022-09-16T04:23:26.476Z,1.93
2022-09-16T04:28:28.343Z,1.50
2022-09-16T04:33:30.872Z,2.03
2022-09-16T04:38:32.576Z,2.03
2022-09-16T04:43:34.275Z,1.70
2022-09-16T04:48:35.884Z,1.73
2022-09-16T04:53:38.185Z,2.73
2022-09-16T04:58:39.794Z,1.80
2022-09-16T05:03:46.056Z,1.83
2022-09-16T05:08:48.621Z,2.03
2022-09-16T05:13:50.302Z,2.20
2022-09-16T05:18:58.073Z,2.00
2022-09-16T05:24:00.623Z,2.10
2022-09-16T05:29:07.009Z,2.23
2022-09-16T05:34:13.796Z,2.10
2022-09-16T05:39:23.238Z,1.93
2022-09-16T05:44:26.500Z,2.10
2022-09-16T05:49:28.177Z,2.50
2022-09-16T05:54:31.379Z,2.87
2022-09-16T05:59:33.025Z,2.70
2022-09-16T06:04:34.653Z,2.37
2022-09-16T06:09:36.801Z,2.50
2022-09-16T06:14:38.420Z,2.17
2022-09-16T06:19:40.117Z,2.30
2022-09-16T06:24:41.727Z,2.40
2022-09-16T06:29:43.380Z,1.80
2022-09-16T06:34:44.994Z,2.10
2022-09-16T06:39:46.696Z,1.60
2022-09-16T06:44:48.381Z,1.80
2022-09-16T06:49:50.036Z,1.40
2022-09-16T06:54:51.695Z,2.50
2022-09-16T06:59:53.358Z,2.40
2022-09-16T07:04:55.092Z,2.00
2022-09-16T07:09:57.090Z,2.00
2022-09-16T07:14:58.709Z,2.27
2022-09-16T07:20:00.475Z,2.00
2022-09-16T07:25:02.086Z,1.77
2022-09-16T07:30:08.817Z,1.27
2022-09-16T07:35:10.974Z,1.33
2022-09-16T07:40:13.555Z,1.40
2022-09-16T07:45:15.329Z,1.80
2022-09-16T07:50:17.149Z,1.23
2022-09-16T07:55:18.966Z,1.50
2022-09-16T08:00:21.383Z,1.37
2022-09-16T08:05:23.003Z,1.70
2022-09-16T08:10:25.771Z,2.23
2022-09-16T08:15:28.888Z,1.90
2022-09-16T08:20:30.781Z,1.23
2022-09-16T08:25:33.185Z,1.47
2022-09-16T08:30:34.822Z,2.00
2022-09-16T08:35:36.593Z,1.80
2022-09-16T08:40:38.404Z,1.30
2022-09-16T08:45:55.327Z,1.60
2022-09-16T08:50:57.315Z,1.60
2022-09-16T08:55:58.922Z,1.47
2022-09-16T09:01:06.709Z,1.70
2022-09-16T09:06:33.045Z,1.60
2022-09-16T09:11:57.703Z,1.80
2022-09-16T09:17:08.922Z,2.17
2022-09-16T09:22:25.726Z,1.90
2022-09-16T09:27:31.200Z,1.50
2022-09-16T09:32:51.755Z,1.60
2022-09-16T09:38:21.976Z,1.47
2022-09-16T09:43:28.546Z,1.57
2022-09-16T09:48:37.326Z,1.53
2022-09-16T09:53:47.365Z,1.90
2022-09-16T09:58:54.299Z,1.23
2022-09-16T10:03:57.326Z,1.57
2022-09-16T10:08:58.999Z,1.53
2022-09-16T10:14:01.368Z,1.37
2022-09-16T10:19:19.656Z,1.63
2022-09-16T10:24:31.917Z,1.20
2022-09-16T10:29:33.569Z,1.60
2022-09-16T10:34:38.374Z,1.20
2022-09-16T10:39:44.970Z,1.27
2022-09-16T10:44:48.227Z,2.03
2022-09-16T10:49:52.206Z,1.03
2022-09-16T10:54:54.262Z,1.47
2022-09-16T10:59:57.657Z,1.30
2022-09-16T11:05:01.984Z,1.40
2022-09-16T11:10:17.590Z,1.70
2022-09-16T11:15:58.194Z,1.50
2022-09-16T11:21:36.322Z,1.43
2022-09-16T11:26:59.928Z,1.53
2022-09-16T11:32:30.252Z,1.30
2022-09-16T11:37:37.682Z,1.60
2022-09-16T11:42:45.660Z,1.53
2022-09-16T11:48:15.386Z,1.93
2022-09-16T11:53:32.669Z,1.20
2022-09-16T11:58:45.537Z,1.83
2022-09-16T12:03:59.281Z,1.50
2022-09-16T12:09:09.004Z,1.30
2022-09-16T12:14:18.248Z,2.07
2022-09-16T12:19:46.288Z,1.40
2022-09-16T12:25:16.115Z,1.37
2022-09-16T12:30:23.693Z,1.40
2022-09-16T12:36:00.037Z,1.10
2022-09-16T12:41:11.597Z,1.30
2022-09-16T12:46:34.877Z,1.70
2022-09-16T12:51:59.718Z,1.60
2022-09-16T12:57:27.239Z,1.90
2022-09-16T13:02:33.159Z,1.40
2022-09-16T13:07:35.238Z,1.90
2022-09-16T13:12:43.168Z,1.73
2022-09-16T13:17:48.512Z,1.53
2022-09-16T13:22:59.066Z,1.70
2022-09-16T13:28:02.231Z,1.33
2022-09-16T13:33:28.101Z,1.27
2022-09-16T13:38:38.701Z,1.33
2022-09-16T13:43:43.252Z,1.30
2022-09-16T13:48:47.643Z,1.20
2022-09-16T13:53:51.359Z,1.10
2022-09-16T13:59:34.436Z,1.37
2022-09-16T14:04:42.223Z,1.30
2022-09-16T14:09:55.196Z,1.60
2022-09-16T14:14:58.694Z,1.03
2022-09-16T14:20:00.556Z,1.33
2022-09-16T14:25:12.649Z,1.50
2022-09-16T14:30:20.826Z,1.43
2022-09-16T14:35:24.443Z,1.67
2022-09-16T14:40:26.329Z,1.67
2022-09-16T14:45:29.161Z,1.90
2022-09-16T14:50:32.444Z,1.40
2022-09-16T14:55:36.280Z,1.57
2022-09-16T15:01:08.938Z,2.30
2022-09-16T15:06:16.872Z,1.53
2022-09-16T15:11:46.046Z,1.50
2022-09-16T15:16:45.930Z,1.70
2022-09-16T15:21:47.536Z,1.70
2022-09-16T15:26:49.232Z,1.53
2022-09-16T15:31:50.932Z,1.50
2022-09-16T15:36:56.710Z,1.70
2022-09-16T15:42:17.319Z,1.27
2022-09-16T15:47:22.014Z,1.67
2022-09-16T15:52:23.641Z,1.50
2022-09-16T15:57:37.000Z,1.30
2022-09-16T16:02:43.907Z,1.40
2022-09-16T16:07:52.964Z,1.60
2022-09-16T16:12:54.704Z,1.33
2022-09-16T16:17:58.488Z,1.37
2022-09-16T16:23:00.792Z,1.57
2022-09-16T16:28:02.444Z,1.90
2022-09-16T16:33:07.139Z,1.80
2022-09-16T16:38:08.784Z,1.87
2022-09-16T16:43:10.500Z,1.73
2022-09-16T16:48:12.130Z,2.10
2022-09-16T16:53:13.752Z,1.63
2022-09-16T16:58:15.351Z,1.70
2022-09-16T17:03:16.990Z,1.83
2022-09-16T17:08:18.597Z,2.00
2022-09-16T17:13:20.282Z,2.57
2022-09-16T17:18:21.905Z,2.17
2022-09-16T17:23:23.512Z,2.50
2022-09-16T17:28:25.131Z,3.70
2022-09-16T17:33:27.089Z,3.20
2022-09-16T17:38:28.714Z,2.60
2022-09-16T17:43:32.640Z,3.00
2022-09-16T17:48:36.379Z,2.67
2022-09-16T17:53:38.100Z,2.17
2022-09-16T17:58:41.148Z,2.97
2022-09-16T18:03:43.879Z,2.63
2022-09-16T18:08:45.556Z,2.60
2022-09-16T18:13:47.409Z,3.07
2022-09-16T18:18:56.246Z,3.30
2022-09-16T18:23:59.437Z,1.90
2022-09-16T18:29:10.395Z,1.90
2022-09-16T18:34:12.439Z,2.20
2022-09-16T18:39:14.850Z,1.50
2022-09-16T18:44:20.907Z,1.17
2022-09-16T18:49:23.991Z,1.33
2022-09-16T18:54:29.969Z,1.37
2022-09-16T18:59:32.474Z,2.20
2022-09-16T19:04:38.056Z,3.40
2022-09-16T19:09:40.141Z,1.70
2022-09-16T19:14:41.797Z,1.20
2022-09-16T19:19:43.473Z,1.53
2022-09-16T19:24:45.119Z,1.80
2022-09-16T19:29:46.738Z,1.10
2022-09-16T19:34:48.387Z,1.37
2022-09-16T19:39:50.199Z,1.20
2022-09-16T19:44:51.894Z,1.10
2022-09-16T19:49:53.571Z,1.13
2022-09-16T19:54:55.245Z,0.80
2022-09-16T19:59:56.870Z,0.80
2022-09-16T20:04:58.790Z,0.97
2022-09-16T20:10:00.407Z,1.07
2022-09-16T20:15:02.160Z,1.20
2022-09-16T20:20:06.060Z,1.10
2022-09-16T20:25:22.342Z,0.93
2022-09-16T20:30:24.846Z,1.20
2022-09-16T20:35:26.431Z,1.03
2022-09-16T20:40:28.095Z,1.00
2022-09-16T20:45:29.821Z,1.40
2022-09-16T20:50:31.483Z,1.20
2022-09-16T20:55:33.141Z,1.30
2022-09-16T21:00:34.797Z,1.20
2022-09-16T21:05:36.405Z,1.67
2022-09-16T21:10:38.577Z,1.30
2022-09-16T21:15:40.183Z,1.30
2022-09-16T21:20:41.811Z,1.70
2022-09-16T21:25:44.100Z,1.30
2022-09-16T21:30:45.765Z,1.37
2022-09-16T21:35:51.573Z,1.27
2022-09-16T21:40:54.999Z,1.70
2022-09-16T21:45:57.750Z,1.10
2022-09-16T21:51:07.143Z,1.27
2022-09-16T21:56:10.524Z,1.40
2022-09-16T22:01:14.743Z,1.27
2022-09-16T22:06:18.418Z,1.20
2022-09-16T22:11:20.985Z,1.10
2022-09-16T22:16:27.325Z,1.33
2022-09-16T22:21:32.016Z,1.00
2022-09-16T22:26:34.701Z,1.00
2022-09-16T22:31:37.508Z,1.10
2022-09-16T22:36:39.300Z,1.10
2022-09-16T22:41:40.929Z,1.17
2022-09-16T22:46:43.987Z,0.97
2022-09-16T22:51:46.012Z,0.90
2022-09-16T22:56:47.620Z,1.23
2022-09-16T23:01:49.477Z,1.17
2022-09-16T23:06:51.671Z,1.13
2022-09-16T23:11:53.294Z,1.50
2022-09-16T23:16:55.068Z,1.37
2022-09-16T23:21:56.694Z,1.70
2022-09-16T23:26:58.309Z,1.60
2022-09-16T23:32:02.588Z,1.63
2022-09-16T23:37:04.214Z,2.00
2022-09-16T23:42:05.955Z,2.03
2022-09-16T23:47:07.578Z,2.47
2022-09-16T23:52:09.238Z,2.57
2022-09-16T23:57:10.845Z,3.00
